Time;durP1;ratioP1;P1;durP2;ratioP2;P2;SDS_P1;SDS_P2;PMS_P1;PMS_P2;Temp;Humidity;BMP_temperature;BMP_pressure;BME280_temperature;BME280_humidity;BME280_pressure;Samples;Min_cycle;Max_cycle;Signal;HPM_P1;HPM_P2
2021/08/22 00:00:25;;;;;;;16.17;14.15;;;19.50;91.80;;;;;;5072445;28;20033;-73
2021/08/22 00:02:51;;;;;;;20.98;18.70;;;19.50;91.80;;;;;;5072010;28;20108;-74
2021/08/22 00:05:17;;;;;;;20.77;17.23;;;19.50;91.90;;;;;;5072506;28;20063;-74
2021/08/22 00:07:42;;;;;;;20.25;17.55;;;19.50;92.00;;;;;;5072264;28;20107;-73
2021/08/22 00:10:08;;;;;;;21.23;18.33;;;19.50;92.00;;;;;;5072558;28;20435;-73
2021/08/22 00:12:34;;;;;;;14.82;12.50;;;19.50;92.30;;;;;;5071776;28;20025;-72
2021/08/22 00:15:00;;;;;;;19.13;15.00;;;19.50;91.90;;;;;;5072257;28;20027;-73
2021/08/22 00:17:25;;;;;;;15.27;12.65;;;19.50;91.80;;;;;;5072291;28;20373;-72
2021/08/22 00:19:51;;;;;;;13.88;10.40;;;19.50;91.80;;;;;;5071971;28;20112;-73
2021/08/22 00:22:17;;;;;;;18.80;14.68;;;19.50;91.30;;;;;;5072211;28;20025;-72
2021/08/22 00:24:42;;;;;;;21.38;18.10;;;19.50;91.50;;;;;;5071694;28;20019;-73
2021/08/22 00:27:08;;;;;;;16.88;13.50;;;19.50;91.70;;;;;;5072037;28;20469;-72
2021/08/22 00:29:34;;;;;;;15.90;11.32;;;19.50;91.70;;;;;;5072042;28;20510;-73
2021/08/22 00:31:59;;;;;;;18.23;16.08;;;19.40;91.60;;;;;;5072107;28;20036;-72
2021/08/22 00:34:25;;;;;;;19.83;17.48;;;19.50;91.70;;;;;;5072053;28;20060;-72
2021/08/22 00:36:50;;;;;;;25.55;20.60;;;19.40;91.80;;;;;;5071854;28;20528;-72
2021/08/22 00:39:16;;;;;;;22.90;19.98;;;19.40;92.00;;;;;;5071689;28;20074;-73
2021/08/22 00:41:42;;;;;;;23.38;20.23;;;19.40;92.20;;;;;;5071514;28;20063;-72
2021/08/22 00:44:08;;;;;;;27.02;22.35;;;19.40;92.20;;;;;;5071969;28;20097;-73
2021/08/22 00:46:36;;;;;;;29.50;23.42;;;19.30;92.30;;;;;;5071608;28;20021;-73
2021/08/22 00:49:07;;;;;;;22.98;20.50;;;19.30;92.30;;;;;;5071868;28;20021;-72
2021/08/22 00:51:33;;;;;;;28.00;23.88;;;19.30;92.40;;;;;;5074404;28;20031;-72
2021/08/22 00:53:59;;;;;;;25.85;20.88;;;19.30;92.50;;;;;;5075171;28;20143;-72
2021/08/22 00:56:25;;;;;;;25.98;21.50;;;19.20;92.60;;;;;;5075664;28;20035;-73
2021/08/22 00:58:50;;;;;;;26.88;23.08;;;19.20;92.60;;;;;;5074929;28;20016;-73
2021/08/22 01:01:19;;;;;;;22.75;19.27;;;19.20;92.60;;;;;;5075051;28;20032;-73
2021/08/22 01:03:53;;;;;;;23.85;20.52;;;19.20;92.60;;;;;;5073986;28;20462;-72
2021/08/22 01:06:40;;;;;;;26.40;23.58;;;19.20;92.60;;;;;;5074806;28;20499;-72
2021/08/22 01:09:11;;;;;;;28.35;23.95;;;19.20;92.80;;;;;;5077925;28;20020;-72
2021/08/22 01:11:39;;;;;;;28.00;24.45;;;19.20;92.80;;;;;;5082285;28;20039;-72
2021/08/22 01:14:11;;;;;;;29.27;24.75;;;19.20;92.80;;;;;;5080274;28;20095;-73
2021/08/22 01:16:40;;;;;;;23.60;20.92;;;19.20;92.90;;;;;;5078307;28;20101;-73
2021/08/22 01:19:34;;;;;;;36.65;31.00;;;19.20;92.90;;;;;;5075580;28;20031;-72
2021/08/22 01:22:00;;;;;;;29.48;25.17;;;19.20;92.90;;;;;;5081370;28;20047;-73
2021/08/22 01:24:27;;;;;;;28.70;25.38;;;19.20;93.00;;;;;;5084491;28;20024;-72
2021/08/22 01:26:55;;;;;;;33.45;26.27;;;19.10;93.00;;;;;;5086173;28;20031;-72
2021/08/22 01:29:27;;;;;;;26.15;21.85;;;19.20;93.10;;;;;;5080157;28;20035;-72
2021/08/22 01:31:59;;;;;;;27.48;23.60;;;19.20;93.00;;;;;;5074727;28;20029;-71
2021/08/22 01:34:26;;;;;;;29.75;24.10;;;19.10;93.00;;;;;;5074640;28;20384;-72
2021/08/22 01:36:52;;;;;;;25.52;21.70;;;19.10;93.00;;;;;;5074413;28;20016;-72
2021/08/22 01:39:19;;;;;;;31.02;25.63;;;19.10;93.00;;;;;;5074927;28;20032;-72
2021/08/22 01:41:47;;;;;;;29.83;23.08;;;19.10;93.00;;;;;;5074232;28;20146;-73
2021/08/22 01:44:17;;;;;;;24.42;19.67;;;19.10;93.00;;;;;;5074197;28;20028;-73
2021/08/22 01:46:44;;;;;;;23.70;19.40;;;19.10;93.30;;;;;;5074236;28;20024;-72
2021/08/22 01:49:12;;;;;;;25.13;20.30;;;19.00;93.00;;;;;;5074467;28;20024;-72
2021/08/22 01:51:38;;;;;;;20.23;17.83;;;19.00;93.00;;;;;;5073930;28;20071;-72
2021/08/22 01:54:07;;;;;;;24.52;20.30;;;19.00;93.00;;;;;;5074226;28;20026;-72
2021/08/22 01:56:36;;;;;;;22.83;17.70;;;19.00;93.30;;;;;;5074523;28;20030;-72
2021/08/22 01:59:03;;;;;;;21.80;18.33;;;19.00;93.10;;;;;;5074216;28;20043;-72
2021/08/22 02:01:29;;;;;;;21.05;17.77;;;19.00;93.10;;;;;;5072454;28;20305;-72
2021/08/22 02:04:18;;;;;;;24.88;19.23;;;19.00;93.10;;;;;;5073545;28;20103;-72
2021/08/22 02:06:54;;;;;;;19.02;15.20;;;18.90;93.00;;;;;;5073818;28;20012;-71
2021/08/22 02:09:33;;;;;;;22.65;17.65;;;18.90;92.90;;;;;;5073708;28;20605;-72
2021/08/22 02:12:03;;;;;;;26.67;20.65;;;18.90;92.90;;;;;;5073929;28;20055;-72
2021/08/22 02:14:32;;;;;;;21.45;18.55;;;18.90;93.10;;;;;;5072717;28;20107;-72
2021/08/22 02:16:58;;;;;;;25.60;22.00;;;18.90;93.20;;;;;;5073702;28;20035;-73
2021/08/22 02:19:25;;;;;;;26.88;21.92;;;18.90;93.20;;;;;;5072344;28;20028;-72
2021/08/22 02:21:52;;;;;;;26.98;21.33;;;18.90;93.30;;;;;;5073263;28;20430;-73
2021/08/22 02:24:19;;;;;;;29.55;24.85;;;18.90;93.10;;;;;;5073844;28;20122;-73
2021/08/22 02:26:45;;;;;;;28.55;23.45;;;18.90;93.30;;;;;;5073403;28;20024;-73
2021/08/22 02:29:10;;;;;;;31.58;25.05;;;18.80;93.40;;;;;;5073663;28;20417;-73
2021/08/22 02:31:36;;;;;;;26.92;22.38;;;18.80;93.50;;;;;;5073065;28;20024;-72
2021/08/22 02:34:02;;;;;;;32.72;26.75;;;18.80;93.50;;;;;;5072173;28;20060;-71
2021/08/22 02:36:28;;;;;;;29.73;25.27;;;18.80;93.50;;;;;;5073364;28;20098;-72
2021/08/22 02:38:55;;;;;;;28.55;23.05;;;18.80;93.50;;;;;;5073362;28;20031;-72
2021/08/22 02:41:21;;;;;;;28.23;24.83;;;18.70;92.90;;;;;;5073335;28;20024;-72
2021/08/22 02:43:47;;;;;;;36.35;28.10;;;18.70;92.50;;;;;;5073558;28;20032;-72
2021/08/22 02:46:13;;;;;;;42.70;32.17;;;18.70;92.90;;;;;;5071922;28;20024;-72
2021/08/22 02:48:39;;;;;;;34.42;27.80;;;18.70;93.30;;;;;;5072788;28;20020;-72
2021/08/22 02:51:05;;;;;;;32.10;28.63;;;18.60;93.30;;;;;;5073322;28;20046;-71
2021/08/22 02:53:30;;;;;;;33.67;28.17;;;18.60;93.40;;;;;;5073070;28;20103;-72
2021/08/22 02:55:57;;;;;;;37.15;30.80;;;18.60;93.50;;;;;;5073080;28;20056;-72
2021/08/22 02:58:23;;;;;;;36.05;28.02;;;18.60;93.50;;;;;;5072958;28;20070;-72
2021/08/22 03:00:48;;;;;;;29.23;24.17;;;18.60;93.60;;;;;;5072886;28;20040;-72
2021/08/22 03:03:14;;;;;;;33.70;27.85;;;18.50;93.50;;;;;;5073208;28;20483;-72
2021/08/22 03:05:39;;;;;;;34.25;28.00;;;18.60;93.70;;;;;;5072700;28;20025;-72
2021/08/22 03:08:05;;;;;;;31.83;27.00;;;18.50;93.80;;;;;;5073871;28;20099;-72
2021/08/22 03:10:31;;;;;;;33.15;27.35;;;18.50;93.80;;;;;;5074541;28;20028;-72
2021/08/22 03:12:57;;;;;;;32.47;27.58;;;18.50;93.90;;;;;;5076090;28;20052;-71
2021/08/22 03:15:23;;;;;;;37.47;30.02;;;18.40;94.00;;;;;;5079420;28;20025;-70
2021/08/22 03:17:49;;;;;;;35.33;26.33;;;18.40;94.10;;;;;;5075294;28;20031;-72
2021/08/22 03:20:15;;;;;;;30.23;24.65;;;18.40;94.00;;;;;;5076655;28;20472;-72
2021/08/22 03:22:42;;;;;;;34.17;28.50;;;18.30;93.90;;;;;;5072485;28;20025;-72
2021/08/22 03:25:09;;;;;;;39.90;30.23;;;18.40;94.00;;;;;;5072744;28;20016;-72
2021/08/22 03:27:35;;;;;;;39.65;30.63;;;18.30;94.10;;;;;;5072315;28;20020;-72
2021/08/22 03:30:00;;;;;;;41.70;30.70;;;18.30;94.10;;;;;;5072383;28;20407;-72
2021/08/22 03:32:26;;;;;;;42.80;32.80;;;18.30;94.10;;;;;;5072607;28;20457;-73
2021/08/22 03:34:51;;;;;;;44.58;33.25;;;18.30;94.20;;;;;;5072609;28;20342;-72
2021/08/22 03:37:17;;;;;;;42.72;32.10;;;18.20;94.20;;;;;;5072320;28;20025;-72
2021/08/22 03:39:43;;;;;;;43.80;33.00;;;18.20;94.20;;;;;;5072512;28;20024;-72
2021/08/22 03:42:08;;;;;;;43.35;32.80;;;18.20;94.40;;;;;;5072261;28;20037;-71
2021/08/22 03:44:34;;;;;;;47.00;35.65;;;18.10;94.40;;;;;;5071227;28;20450;-71
2021/08/22 03:47:00;;;;;;;47.80;33.65;;;18.10;94.50;;;;;;5072410;28;20144;-72
2021/08/22 03:49:25;;;;;;;39.10;29.33;;;18.10;94.50;;;;;;5073214;28;20029;-72
2021/08/22 03:51:51;;;;;;;49.13;36.70;;;18.00;94.50;;;;;;5080550;28;20031;-73
2021/08/22 03:54:16;;;;;;;43.97;31.80;;;18.00;94.60;;;;;;5078122;28;20025;-72
2021/08/22 03:56:42;;;;;;;44.85;34.17;;;18.00;94.40;;;;;;5072215;28;20036;-72
2021/08/22 03:59:08;;;;;;;48.85;34.70;;;18.00;94.50;;;;;;5071063;28;20091;-72
2021/08/22 04:01:37;;;;;;;39.88;30.30;;;18.00;94.60;;;;;;5072336;28;20028;-73
2021/08/22 04:04:04;;;;;;;45.40;33.88;;;18.00;94.50;;;;;;5072102;28;20038;-73
2021/08/22 04:06:30;;;;;;;47.33;36.58;;;18.00;94.60;;;;;;5072304;28;20569;-71
2021/08/22 04:09:00;;;;;;;51.22;34.10;;;18.00;94.60;;;;;;5072395;28;20021;-71
2021/08/22 04:11:26;;;;;;;47.70;34.60;;;18.00;94.60;;;;;;5072480;28;20032;-72
2021/08/22 04:13:52;;;;;;;43.50;32.53;;;18.00;94.60;;;;;;5072381;28;20040;-72
2021/08/22 04:16:17;;;;;;;52.65;36.38;;;18.00;94.60;;;;;;5070605;28;20501;-72
2021/08/22 04:18:43;;;;;;;40.28;29.02;;;18.00;94.60;;;;;;5072014;28;20107;-72
2021/08/22 04:21:08;;;;;;;47.75;34.92;;;18.10;94.50;;;;;;5070822;28;20029;-72
2021/08/22 04:23:34;;;;;;;42.08;28.95;;;18.10;94.50;;;;;;5071818;28;20029;-72
2021/08/22 04:26:00;;;;;;;50.80;34.75;;;18.10;94.40;;;;;;5072617;28;20136;-72
2021/08/22 04:28:27;;;;;;;58.97;38.47;;;18.00;94.50;;;;;;5075653;28;20044;-71
2021/08/22 04:30:52;;;;;;;47.35;32.25;;;18.00;94.50;;;;;;5075669;28;20024;-73
2021/08/22 04:33:18;;;;;;;55.42;38.83;;;18.00;94.40;;;;;;5075849;28;20025;-73
2021/08/22 04:35:43;;;;;;;47.45;33.25;;;18.00;94.50;;;;;;5075849;28;20021;-72
2021/08/22 04:38:09;;;;;;;56.80;38.40;;;18.00;94.60;;;;;;5075511;28;20028;-73
2021/08/22 04:40:38;;;;;;;63.70;40.45;;;17.90;94.60;;;;;;5075521;28;20035;-72
2021/08/22 04:43:05;;;;;;;55.55;36.50;;;18.00;94.70;;;;;;5074168;28;20078;-71
2021/08/22 04:45:31;;;;;;;60.30;39.85;;;17.90;94.60;;;;;;5075749;28;20024;-71
2021/08/22 04:47:56;;;;;;;66.88;41.85;;;17.90;94.60;;;;;;5075636;28;20107;-72
2021/08/22 04:50:22;;;;;;;61.55;39.92;;;17.90;94.60;;;;;;5075667;28;20100;-72
2021/08/22 04:52:48;;;;;;;59.22;39.17;;;17.90;94.60;;;;;;5075619;28;20501;-71
2021/08/22 04:55:13;;;;;;;61.30;40.67;;;17.90;94.60;;;;;;5075864;28;20063;-71
2021/08/22 04:57:39;;;;;;;45.85;30.85;;;17.90;94.60;;;;;;5075769;28;20269;-71
2021/08/22 05:00:05;;;;;;;52.22;36.17;;;17.90;94.40;;;;;;5081210;28;20101;-70
2021/08/22 05:02:31;;;;;;;66.10;41.72;;;17.90;94.30;;;;;;5085019;28;20033;-71
2021/08/22 05:04:57;;;;;;;70.70;43.45;;;17.90;94.60;;;;;;5083434;28;20088;-71
2021/08/22 05:07:23;;;;;;;52.33;34.70;;;17.90;94.60;;;;;;5075946;28;20017;-71
2021/08/22 05:09:49;;;;;;;60.63;39.33;;;17.80;94.40;;;;;;5075158;28;20643;-72
2021/08/22 05:12:14;;;;;;;65.18;41.45;;;17.90;94.70;;;;;;5074924;28;20029;-71
2021/08/22 05:14:40;;;;;;;64.38;42.00;;;17.90;94.80;;;;;;5075219;28;20302;-72
2021/08/22 05:17:05;;;;;;;58.67;39.38;;;17.90;94.80;;;;;;5075048;28;20459;-72
2021/08/22 05:19:31;;;;;;;53.08;33.28;;;17.90;94.80;;;;;;5074814;28;20534;-72
2021/08/22 05:21:56;;;;;;;61.50;38.42;;;17.90;95.00;;;;;;5076024;28;20063;-72
2021/08/22 05:24:22;;;;;;;64.60;41.08;;;17.90;94.70;;;;;;5077191;28;20033;-72
2021/08/22 05:26:48;;;;;;;67.18;44.78;;;17.90;94.70;;;;;;5074768;28;20504;-72
2021/08/22 05:29:13;;;;;;;69.47;44.63;;;17.90;94.80;;;;;;5074912;28;20483;-72
2021/08/22 05:31:39;;;;;;;61.45;40.53;;;17.90;94.80;;;;;;5074614;28;20619;-72
2021/08/22 05:34:04;;;;;;;72.00;46.65;;;17.90;94.90;;;;;;5074583;28;20031;-72
2021/08/22 05:36:35;;;;;;;66.68;43.60;;;18.00;94.90;;;;;;5073645;28;20465;-72
2021/08/22 05:39:02;;;;;;;47.42;31.35;;;18.00;94.80;;;;;;5074263;28;20031;-72
2021/08/22 05:41:28;;;;;;;64.40;42.65;;;18.00;94.70;;;;;;5074791;28;20040;-72
2021/08/22 05:43:53;;;;;;;64.28;39.30;;;18.10;94.80;;;;;;5074209;28;20021;-72
2021/08/22 05:46:19;;;;;;;58.25;39.70;;;18.10;94.80;;;;;;5074579;28;20029;-72
2021/08/22 05:48:44;;;;;;;67.35;44.85;;;18.10;94.70;;;;;;5073201;28;20461;-72
2021/08/22 05:51:15;;;;;;;60.25;42.13;;;18.10;94.60;;;;;;5074222;28;20036;-72
2021/08/22 05:53:42;;;;;;;68.32;46.33;;;18.20;94.60;;;;;;5074654;28;20028;-72
2021/08/22 05:56:08;;;;;;;60.95;41.28;;;18.20;94.60;;;;;;5074167;28;20059;-73
2021/08/22 05:58:34;;;;;;;65.95;41.80;;;18.20;94.40;;;;;;5074319;28;20051;-72
2021/08/22 06:01:00;;;;;;;64.35;42.85;;;18.20;94.30;;;;;;5074394;28;20415;-72
2021/08/22 06:03:26;;;;;;;66.72;44.40;;;18.30;94.00;;;;;;5074138;28;20210;-72
2021/08/22 06:05:53;;;;;;;75.13;49.45;;;18.40;94.10;;;;;;5074195;28;20369;-71
2021/08/22 06:08:18;;;;;;;76.82;51.72;;;18.40;94.20;;;;;;5073854;28;20036;-72
2021/08/22 06:10:44;;;;;;;63.70;42.55;;;18.50;94.00;;;;;;5074081;28;20028;-72
2021/08/22 06:13:10;;;;;;;64.65;42.42;;;18.50;94.00;;;;;;5073988;28;20067;-72
2021/08/22 06:15:35;;;;;;;52.40;36.15;;;18.50;93.80;;;;;;5073950;28;20048;-72
2021/08/22 06:18:01;;;;;;;72.85;47.58;;;18.50;93.40;;;;;;5073387;28;20063;-72
2021/08/22 06:20:27;;;;;;;50.97;35.83;;;18.50;93.60;;;;;;5073808;28;20047;-71
2021/08/22 06:22:53;;;;;;;48.60;33.78;;;18.60;93.50;;;;;;5072191;28;20118;-71
2021/08/22 06:25:18;;;;;;;71.95;47.03;;;18.60;93.40;;;;;;5073790;28;20111;-71
2021/08/22 06:27:44;;;;;;;50.17;34.15;;;18.60;93.50;;;;;;5074476;28;20021;-72
2021/08/22 06:30:10;;;;;;;58.05;41.28;;;18.60;92.60;;;;;;5079436;28;20095;-72
2021/08/22 06:32:35;;;;;;;62.67;43.80;;;18.60;92.80;;;;;;5082960;28;20021;-72
2021/08/22 06:35:01;;;;;;;67.97;46.80;;;18.70;93.20;;;;;;5082848;28;20027;-72
2021/08/22 06:37:27;;;;;;;55.88;37.70;;;18.70;93.40;;;;;;5073136;28;20050;-72
2021/08/22 06:39:52;;;;;;;64.53;44.53;;;18.60;93.30;;;;;;5073449;28;20032;-72
2021/08/22 06:42:18;;;;;;;55.10;39.83;;;18.60;93.30;;;;;;5073754;28;20473;-72
2021/08/22 06:44:44;;;;;;;56.38;38.00;;;18.60;93.30;;;;;;5073664;28;20445;-72
2021/08/22 06:47:10;;;;;;;62.78;41.05;;;18.60;92.80;;;;;;5073412;28;20369;-73
2021/08/22 06:49:36;;;;;;;49.53;35.67;;;18.60;93.20;;;;;;5086074;28;20025;-71
2021/08/22 06:52:03;;;;;;;58.80;41.05;;;18.50;93.10;;;;;;5083204;28;20051;-71
2021/08/22 06:54:29;;;;;;;41.28;29.50;;;18.60;93.40;;;;;;5074397;28;20032;-73
2021/08/22 06:56:55;;;;;;;54.22;36.97;;;18.60;92.50;;;;;;5073487;28;20025;-72
2021/08/22 06:59:22;;;;;;;53.53;37.90;;;18.60;93.10;;;;;;5073634;28;20020;-73
2021/08/22 07:01:48;;;;;;;44.45;32.53;;;18.60;93.10;;;;;;5073198;28;20044;-73
2021/08/22 07:04:13;;;;;;;52.67;38.08;;;18.70;93.00;;;;;;5072557;28;20113;-72
2021/08/22 07:06:39;;;;;;;49.67;35.05;;;18.70;92.80;;;;;;5072858;28;20518;-72
2021/08/22 07:09:05;;;;;;;51.72;35.97;;;18.70;93.00;;;;;;5072918;28;20024;-73
2021/08/22 07:11:31;;;;;;;38.53;27.40;;;18.70;92.90;;;;;;5072740;28;20032;-73
2021/08/22 07:13:56;;;;;;;47.83;33.63;;;18.70;92.80;;;;;;5072635;28;20021;-72
2021/08/22 07:16:22;;;;;;;44.42;31.60;;;18.70;92.70;;;;;;5072842;28;20052;-71
2021/08/22 07:18:47;;;;;;;46.58;34.03;;;18.70;92.50;;;;;;5072762;28;20028;-71
2021/08/22 07:21:13;;;;;;;57.70;38.95;;;18.60;92.70;;;;;;5072618;28;20479;-72
2021/08/22 07:23:39;;;;;;;48.60;34.22;;;18.60;92.90;;;;;;5072697;28;20031;-71
2021/08/22 07:26:04;;;;;;;52.08;39.78;;;18.60;92.80;;;;;;5074170;28;20373;-72
2021/08/22 07:28:30;;;;;;;53.17;38.75;;;18.50;92.30;;;;;;5071335;28;20070;-71
2021/08/22 07:30:55;;;;;;;42.83;31.58;;;18.50;92.60;;;;;;5072648;28;20489;-72
2021/08/22 07:33:21;;;;;;;65.32;43.55;;;18.60;92.60;;;;;;5073148;28;20025;-72
2021/08/22 07:35:47;;;;;;;59.55;41.05;;;18.50;92.70;;;;;;5072669;28;20098;-72
2021/08/22 07:38:12;;;;;;;41.17;31.00;;;18.50;92.70;;;;;;5071530;28;20035;-72
2021/08/22 07:40:39;;;;;;;52.67;39.30;;;18.60;92.50;;;;;;5071182;28;20465;-72
2021/08/22 07:43:04;;;;;;;56.05;39.95;;;18.50;92.60;;;;;;5072341;28;20056;-71
2021/08/22 07:45:30;;;;;;;53.88;40.85;;;18.50;92.50;;;;;;5072816;28;20117;-72
2021/08/22 07:47:56;;;;;;;49.13;38.13;;;18.50;92.30;;;;;;5072144;28;20087;-71
2021/08/22 07:50:22;;;;;;;52.75;37.65;;;18.60;92.60;;;;;;5070818;28;20641;-72
2021/08/22 07:52:47;;;;;;;49.90;36.20;;;18.50;92.80;;;;;;5072373;28;20024;-72
2021/08/22 07:55:13;;;;;;;54.65;37.30;;;18.60;92.60;;;;;;5070797;28;20036;-72
2021/08/22 07:57:39;;;;;;;44.38;35.55;;;18.60;92.60;;;;;;5072276;28;20503;-72
2021/08/22 08:00:05;;;;;;;46.22;35.42;;;18.70;92.60;;;;;;5072420;28;20020;-73
2021/08/22 08:02:31;;;;;;;39.85;29.58;;;18.70;92.50;;;;;;5076198;28;20473;-73
2021/08/22 08:04:56;;;;;;;40.90;31.98;;;18.80;92.30;;;;;;5075259;28;20032;-73
2021/08/22 08:07:22;;;;;;;45.20;33.97;;;18.80;92.10;;;;;;5076220;28;20017;-73
2021/08/22 08:09:47;;;;;;;36.33;30.17;;;18.90;91.90;;;;;;5076397;28;20024;-73
2021/08/22 08:12:13;;;;;;;29.50;23.63;;;19.00;91.90;;;;;;5075783;28;20063;-72
2021/08/22 08:14:39;;;;;;;37.42;26.92;;;19.20;91.50;;;;;;5075957;28;20032;-72
2021/08/22 08:17:06;;;;;;;31.27;26.73;;;19.40;91.00;;;;;;5075669;28;20059;-72
2021/08/22 08:19:32;;;;;;;33.40;27.80;;;19.40;90.70;;;;;;5076371;28;20032;-72
2021/08/22 08:21:57;;;;;;;35.15;27.48;;;19.50;90.60;;;;;;5075597;28;20024;-71
2021/08/22 08:24:23;;;;;;;31.60;25.95;;;19.50;90.80;;;;;;5076069;28;20384;-72
2021/08/22 08:26:49;;;;;;;33.67;26.88;;;19.60;90.50;;;;;;5076084;28;20020;-71
2021/08/22 08:29:14;;;;;;;31.63;25.88;;;19.70;90.40;;;;;;5075769;28;20099;-73
2021/08/22 08:31:40;;;;;;;30.65;25.90;;;19.70;90.30;;;;;;5075785;28;20033;-72
2021/08/22 08:34:05;;;;;;;33.38;26.63;;;19.80;90.20;;;;;;5076594;28;20439;-72
2021/08/22 08:36:31;;;;;;;27.45;21.85;;;19.90;90.00;;;;;;5086157;28;20035;-73
2021/08/22 08:38:57;;;;;;;24.30;20.60;;;19.90;88.60;;;;;;5085215;28;20073;-72
2021/08/22 08:41:22;;;;;;;23.00;20.17;;;20.00;87.40;;;;;;5081860;28;20036;-72
2021/08/22 08:43:48;;;;;;;29.38;25.42;;;19.90;87.80;;;;;;5076495;28;20033;-72
2021/08/22 08:46:18;;;;;;;26.08;22.67;;;19.90;88.00;;;;;;5075150;28;20025;-71
2021/08/22 08:49:14;;;;;;;29.60;24.48;;;19.90;88.30;;;;;;5076554;28;20031;-72
2021/08/22 08:52:03;;;;;;;31.58;22.75;;;19.90;88.40;;;;;;5075736;28;20274;-73
2021/08/22 08:54:44;;;;;;;27.75;22.85;;;20.10;87.60;;;;;;5075657;28;20031;-72
2021/08/22 08:57:10;;;;;;;29.77;26.17;;;20.20;87.20;;;;;;5075266;28;20017;-72
2021/08/22 08:59:39;;;;;;;30.95;25.52;;;20.30;86.40;;;;;;5075668;28;20035;-72
2021/08/22 09:02:05;;;;;;;31.33;26.05;;;20.30;85.40;;;;;;5075017;28;20020;-72
2021/08/22 09:04:34;;;;;;;33.00;26.33;;;20.40;85.40;;;;;;5075950;28;20035;-73
2021/08/22 09:07:37;;;;;;;25.25;19.77;;;20.40;85.00;;;;;;5075880;28;20034;-73
2021/08/22 09:10:12;;;;;;;25.58;18.25;;;20.60;85.00;;;;;;5075679;28;20032;-72
2021/08/22 09:13:02;;;;;;;24.40;18.88;;;20.90;84.10;;;;;;5079302;28;20435;-73
2021/08/22 09:16:04;;;;;;;20.92;17.48;;;21.20;81.80;;;;;;5082471;28;20020;-73
2021/08/22 09:18:56;;;;;;;27.70;22.45;;;21.50;81.10;;;;;;5075221;28;20043;-72
2021/08/22 09:21:44;;;;;;;18.75;14.90;;;21.50;81.60;;;;;;5073401;28;20070;-72
2021/08/22 09:24:30;;;;;;;27.05;21.35;;;21.50;81.00;;;;;;5073538;28;20033;-72
2021/08/22 09:27:33;;;;;;;18.45;14.13;;;21.40;82.30;;;;;;5075321;28;20107;-73
2021/08/22 09:29:59;;;;;;;27.20;23.95;;;21.50;81.30;;;;;;5081871;28;20031;-74
2021/08/22 09:33:02;;;;;;;19.20;14.70;;;21.60;82.20;;;;;;5076734;28;20024;-72
2021/08/22 09:36:05;;;;;;;24.90;20.98;;;21.50;81.20;;;;;;5073580;28;20024;-73
2021/08/22 09:39:08;;;;;;;26.77;22.33;;;21.40;81.40;;;;;;5074695;28;20035;-72
2021/08/22 09:42:02;;;;;;;22.60;20.02;;;21.50;80.50;;;;;;5074591;28;20031;-73
2021/08/22 09:45:01;;;;;;;21.27;16.65;;;21.50;79.90;;;;;;5074739;28;20070;-72
2021/08/22 09:47:46;;;;;;;14.60;12.73;;;21.40;80.30;;;;;;5074337;28;20555;-72
2021/08/22 09:51:10;;;;;;;26.08;19.90;;;21.20;80.90;;;;;;5074364;28;20056;-72
2021/08/22 09:54:12;;;;;;;24.00;20.35;;;21.10;81.40;;;;;;5035010;28;20032;-72
2021/08/22 09:57:15;;;;;;;20.77;17.38;;;21.00;82.30;;;;;;5051724;28;20033;-73
2021/08/22 09:59:56;;;;;;;13.88;10.40;;;20.80;82.50;;;;;;5073373;28;20381;-72
2021/08/22 10:02:26;;;;;;;11.80;8.43;;;20.70;82.90;;;;;;5073985;28;20108;-73
2021/08/22 10:04:58;;;;;;;14.15;8.20;;;20.70;83.20;;;;;;5074087;28;20103;-72
2021/08/22 10:07:47;;;;;;;15.35;10.98;;;20.80;83.30;;;;;;5074106;28;20031;-72
2021/08/22 10:10:37;;;;;;;16.88;10.88;;;20.90;82.90;;;;;;5074019;28;20031;-73
2021/08/22 10:13:03;;;;;;;22.10;19.67;;;21.00;82.30;;;;;;5067203;28;20116;-73
2021/08/22 10:15:29;;;;;;;16.80;14.38;;;21.00;81.40;;;;;;5073893;28;20028;-73
2021/08/22 10:17:55;;;;;;;24.80;20.77;;;20.80;82.10;;;;;;5073736;28;20113;-73
2021/08/22 10:20:20;;;;;;;19.90;17.77;;;20.60;82.60;;;;;;5073367;28;20052;-73
2021/08/22 10:22:51;;;;;;;17.13;14.07;;;20.50;83.20;;;;;;5073949;28;20520;-73
2021/08/22 10:25:47;;;;;;;19.65;16.25;;;20.40;84.10;;;;;;5081066;28;20051;-73
2021/08/22 10:28:12;;;;;;;18.08;14.45;;;20.30;84.50;;;;;;5080207;28;20023;-72
2021/08/22 10:30:42;;;;;;;25.27;22.55;;;20.30;84.60;;;;;;5076601;28;20024;-72
2021/08/22 10:33:09;;;;;;;21.65;17.15;;;20.40;85.00;;;;;;5073725;28;20021;-73
2021/08/22 10:35:35;;;;;;;18.95;15.90;;;20.30;84.80;;;;;;5073680;28;20027;-73
2021/08/22 10:38:24;;;;;;;16.73;13.57;;;20.40;84.80;;;;;;5073628;28;20099;-73
2021/08/22 10:40:52;;;;;;;15.75;12.82;;;20.40;84.90;;;;;;5073246;28;20606;-73
2021/08/22 10:43:17;;;;;;;27.63;23.02;;;20.40;84.70;;;;;;5073170;28;20108;-73
2021/08/22 10:45:50;;;;;;;14.65;13.02;;;20.40;84.80;;;;;;5072441;28;20104;-72
2021/08/22 10:48:22;;;;;;;21.25;18.90;;;20.50;84.50;;;;;;5073550;28;20025;-73
2021/08/22 10:50:57;;;;;;;17.88;15.35;;;20.60;83.90;;;;;;5073314;28;20038;-73
2021/08/22 10:53:27;;;;;;;13.57;11.57;;;20.60;84.00;;;;;;5073100;28;20023;-73
2021/08/22 10:55:53;;;;;;;;;;;20.70;83.80;;;;;;5073498;28;20025;-74
2021/08/22 10:58:19;;;;;;;17.15;13.90;;;20.80;83.00;;;;;;5072658;28;20011;-75
2021/08/22 11:00:45;;;;;;;14.65;12.40;;;20.80;82.60;;;;;;5072908;28;20386;-73
2021/08/22 11:03:16;;;;;;;16.58;14.82;;;20.70;82.30;;;;;;5071419;28;20032;-74
2021/08/22 11:05:42;;;;;;;11.02;9.05;;;20.80;82.20;;;;;;5072556;28;20017;-74
2021/08/22 11:08:18;;;;;;;16.27;13.90;;;20.90;81.80;;;;;;5073343;28;20027;-73
2021/08/22 11:11:04;;;;;;;19.77;15.98;;;21.00;81.30;;;;;;5071760;28;20082;-73
2021/08/22 11:13:32;;;;;;;12.15;9.80;;;21.30;80.20;;;;;;5071511;28;20024;-73
2021/08/22 11:16:06;;;;;;;12.68;8.93;;;21.60;79.80;;;;;;5072806;28;20016;-74
2021/08/22 11:18:35;;;;;;;12.40;10.05;;;21.80;78.90;;;;;;5072395;28;20119;-75
2021/08/22 11:21:02;;;;;;;11.15;8.57;;;21.90;78.20;;;;;;5072805;28;20032;-74
2021/08/22 11:23:29;;;;;;;13.07;9.07;;;21.90;78.20;;;;;;5072636;28;20039;-74
2021/08/22 11:26:20;;;;;;;12.38;9.65;;;21.90;78.20;;;;;;5071423;28;20051;-74
2021/08/22 11:28:54;;;;;;;12.20;9.50;;;21.90;78.60;;;;;;5072829;28;20481;-73
2021/08/22 11:31:20;;;;;;;10.70;9.02;;;21.90;78.20;;;;;;5072585;28;20032;-73
2021/08/22 11:33:45;;;;;;;10.30;9.18;;;21.90;78.80;;;;;;5076194;28;20031;-73
2021/08/22 11:36:11;;;;;;;14.18;10.60;;;22.10;79.00;;;;;;5071928;28;20028;-73
2021/08/22 11:38:37;;;;;;;10.45;8.95;;;22.20;78.00;;;;;;5072429;28;20476;-73
2021/08/22 11:41:03;;;;;;;10.95;9.10;;;22.40;77.70;;;;;;5072007;28;20028;-73
2021/08/22 11:43:30;;;;;;;11.40;9.10;;;22.60;76.80;;;;;;5072085;28;20036;-73
2021/08/22 11:45:56;;;;;;;10.98;8.32;;;22.80;76.90;;;;;;5072471;28;20020;-72
2021/08/22 11:48:24;;;;;;;11.23;9.45;;;23.00;75.90;;;;;;5072033;28;20021;-73
2021/08/22 11:50:51;;;;;;;11.05;9.57;;;23.00;75.90;;;;;;5072534;28;20047;-73
2021/08/22 11:53:18;;;;;;;10.65;9.10;;;23.10;75.20;;;;;;5071325;28;20017;-73
2021/08/22 11:55:45;;;;;;;11.88;10.00;;;23.10;74.20;;;;;;5075240;28;20473;-73
2021/08/22 11:58:13;;;;;;;11.95;8.88;;;23.30;74.10;;;;;;5075776;28;20023;-73
2021/08/22 12:00:51;;;;;;;10.18;9.02;;;23.50;73.50;;;;;;5072817;28;20103;-74
2021/08/22 12:03:24;;;;;;;11.32;8.90;;;23.70;73.30;;;;;;5072043;28;20527;-73
2021/08/22 12:05:59;;;;;;;11.85;9.77;;;23.70;72.60;;;;;;5072121;28;20111;-73
2021/08/22 12:08:27;;;;;;;9.95;8.77;;;23.70;72.60;;;;;;5072295;28;20012;-73
2021/08/22 12:11:22;;;;;;;10.27;8.20;;;23.60;73.00;;;;;;5072989;28;20024;-74
2021/08/22 12:13:48;;;;;;;12.25;9.63;;;23.50;73.40;;;;;;5082063;28;20016;-73
2021/08/22 12:16:31;;;;;;;10.50;9.40;;;23.40;73.40;;;;;;5085708;28;20030;-71
2021/08/22 12:19:24;;;;;;;10.55;9.45;;;23.30;73.20;;;;;;5081118;28;20114;-74
2021/08/22 12:21:51;;;;;;;14.50;11.23;;;23.10;73.80;;;;;;5073001;28;20366;-74
2021/08/22 12:24:25;;;;;;;12.07;10.05;;;23.00;74.20;;;;;;5072047;28;20021;-74
2021/08/22 12:26:59;;;;;;;11.50;9.40;;;22.90;74.50;;;;;;5070398;28;20119;-74
2021/08/22 12:29:36;;;;;;;9.98;8.82;;;23.00;74.70;;;;;;5070568;28;20012;-74
2021/08/22 12:32:13;;;;;;;13.32;9.45;;;23.10;74.40;;;;;;5071916;28;20449;-74
2021/08/22 12:34:39;;;;;;;11.48;9.45;;;23.20;73.80;;;;;;5072193;28;20024;-75
2021/08/22 12:37:10;;;;;;;9.52;8.25;;;23.30;73.50;;;;;;5070694;28;20372;-74
2021/08/22 12:39:35;;;;;;;;;;;23.30;73.60;;;;;;5072337;28;20075;-75